FQLC

Lichinga Airport

Lichinga, Mozambique
METAR FQLC 181200Z 09010KT 050V104 9999 SCT015 23/10 Q1023
Observed Flight Rules
Aug-18 @ 12:00 UTC (3 hours ago) Visual Flight Rules
Wind Visibility Clouds
90° at 10 knots 10,000+ meters
  • Scattered at 1,500' AGL
Temperatures Readings
Current 23°C / 73°F
Dewpoint 10°C / 50°F
Humidity 44%
Altimeter 30.21" Hg
Pressure 1023 hPa
Elevation 1365
METAR FQLC 181200Z 09010KT 050V104 9999 SCT015 23/10 Q1023
Observed Flight Rules
Aug-18 @ 12:00 UTC
(3 hours ago)
VFR
Wind Visibility
90° at 10 knots 10,000+ meters
Clouds
  • Scattered at 1,500' AGL
Temperature Dewpoint
23°C / 73°F 10°C / 50°F
Humidity Altimeter Pressure
44% 30.21" Hg 1023 hPa